KLGC

Lagrange-Callaway Airport

Lagrange, Georgia, USA
METAR KLGC 232015Z AUTO 00000KT 10SM CLR 21/13 A3016 RMK AO2 T02070129
Observed Flight Rules
Oct-23 @ 20:15 UTC (16 minutes ago) Visual Flight Rules
Visibility Clouds
10 miles
  • Clear skies
Temperatures Readings
Current 21°C / 70°F
Dewpoint 13°C / 55°F
Humidity 60%
Altimeter 30.16" Hg
Pressure 1021 hPa
Elevation 211
METAR KLGC 232015Z AUTO 00000KT 10SM CLR 21/13 A3016 RMK AO2 T02070129
Observed Flight Rules
Oct-23 @ 20:15 UTC
(16 minutes ago)
VFR
Clouds
  • Clear skies
Temperature Dewpoint
21°C / 70°F 13°C / 55°F
Humidity Altimeter Pressure
60% 30.16" Hg 1021 hPa